TimeEST,TemperatureF,Dew PointF,Humidity,Sea Level PressureIn,VisibilityMPH,Wind Direction,Wind SpeedMPH,Gust SpeedMPH,PrecipitationIn,Events,Conditions,WindDirDegrees,DateUTC
12:11 AM,26.6,24.8,93,29.87,1.5,North,16.1,-,0.00,Snow,Light Snow,10,2013-03-06 05:11:00
12:19 AM,26.6,24.8,93,29.88,2.0,North,13.8,-,0.01,Snow,Light Snow,360,2013-03-06 05:19:00
12:54 AM,27.0,24.1,89,29.92,2.5,North,11.5,-,0.01,Snow,Light Snow,360,2013-03-06 05:54:00
12:59 AM,26.6,24.8,93,29.89,1.8,North,13.8,-,0.00,Snow,Light Snow,360,2013-03-06 05:59:00
1:14 AM,26.6,24.8,93,29.90,2.0,North,13.8,-,0.00,Snow,Light Snow,360,2013-03-06 06:14:00
1:21 AM,26.6,23.0,86,29.90,1.5,North,12.7,-,0.00,Snow,Light Snow,10,2013-03-06 06:21:00
1:32 AM,26.6,23.0,86,29.91,3.0,North,11.5,-,0.00,Snow,Light Snow,10,2013-03-06 06:32:00
1:42 AM,26.6,23.0,86,29.91,6.0,North,12.7,-,0.00,Snow,Light Snow,360,2013-03-06 06:42:00
1:54 AM,27.0,23.0,85,29.95,5.0,North,11.5,-,0.00,Snow,Light Snow,10,2013-03-06 06:54:00
2:54 AM,27.0,23.0,85,29.96,10.0,North,12.7,-,0.00,,Overcast,360,2013-03-06 07:54:00
3:54 AM,27.0,21.9,81,29.98,10.0,North,13.8,-,0.00,,Overcast,350,2013-03-06 08:54:00
4:16 AM,28.4,23.0,80,29.95,10.0,North,13.8,-,N/A,,Overcast,350,2013-03-06 09:16:00
4:54 AM,28.0,23.0,81,30.00,10.0,NNW,13.8,-,N/A,,Overcast,340,2013-03-06 09:54:00
5:54 AM,28.0,24.1,85,30.04,10.0,North,16.1,-,N/A,,Overcast,350,2013-03-06 10:54:00
6:54 AM,28.9,24.1,82,30.09,10.0,NNW,11.5,-,N/A,,Overcast,340,2013-03-06 11:54:00
7:54 AM,30.0,25.0,82,30.11,10.0,North,17.3,-,N/A,,Overcast,350,2013-03-06 12:54:00
8:54 AM,30.0,26.1,85,30.13,7.0,North,9.2,-,N/A,,Overcast,360,2013-03-06 13:54:00
9:33 AM,30.2,26.6,86,30.11,10.0,North,10.4,-,N/A,,Overcast,360,2013-03-06 14:33:00
9:54 AM,30.9,26.1,82,30.15,10.0,North,11.5,-,N/A,,Overcast,360,2013-03-06 14:54:00
10:54 AM,33.1,26.1,75,30.16,10.0,North,12.7,-,N/A,,Overcast,360,2013-03-06 15:54:00
11:54 AM,33.1,25.0,72,30.19,10.0,North,10.4,-,N/A,,Overcast,360,2013-03-06 16:54:00
12:54 PM,34.0,26.1,73,30.20,10.0,NNW,10.4,-,N/A,,Overcast,330,2013-03-06 17:54:00
1:54 PM,34.0,26.1,73,30.19,10.0,North,9.2,-,N/A,,Overcast,350,2013-03-06 18:54:00
2:54 PM,35.1,26.1,70,30.19,10.0,North,8.1,-,N/A,,Overcast,350,2013-03-06 19:54:00
3:54 PM,35.1,26.1,70,30.21,10.0,North,8.1,-,N/A,,Overcast,10,2013-03-06 20:54:00
4:54 PM,35.1,26.1,70,30.22,10.0,North,5.8,-,N/A,,Overcast,10,2013-03-06 21:54:00
5:54 PM,35.1,25.0,67,30.24,10.0,NNW,5.8,-,N/A,,Overcast,340,2013-03-06 22:54:00
6:54 PM,34.0,27.0,75,30.25,10.0,NNW,6.9,-,N/A,,Overcast,340,2013-03-06 23:54:00
7:54 PM,33.1,28.0,82,30.26,10.0,Calm,Calm,-,N/A,,Overcast,0,2013-03-07 00:54:00
8:35 PM,33.8,28.4,81,30.24,10.0,West,4.6,-,N/A,,Overcast,280,2013-03-07 01:35:00
8:54 PM,33.1,28.0,82,30.27,10.0,West,4.6,-,N/A,,Overcast,280,2013-03-07 01:54:00
9:42 PM,33.8,28.4,81,30.25,10.0,WNW,5.8,-,N/A,,Overcast,300,2013-03-07 02:42:00
9:54 PM,33.1,28.9,85,30.28,10.0,NW,6.9,-,N/A,,Overcast,310,2013-03-07 02:54:00
10:02 PM,33.8,30.2,87,30.25,10.0,NW,8.1,-,N/A,,Overcast,320,2013-03-07 03:02:00
10:14 PM,33.8,30.2,87,30.25,10.0,NW,5.8,-,N/A,,Overcast,320,2013-03-07 03:14:00
10:21 PM,33.8,30.2,87,30.24,10.0,NNW,4.6,-,N/A,,Overcast,330,2013-03-07 03:21:00
10:51 PM,33.8,30.2,87,30.25,5.0,NW,8.1,-,0.00,Snow,Light Snow,320,2013-03-07 03:51:00
10:54 PM,33.1,30.0,89,30.27,6.0,NNW,6.9,-,0.00,Snow,Light Snow,330,2013-03-07 03:54:00
11:54 PM,33.1,30.0,89,30.27,1.8,NNW,9.2,-,0.00,Snow,Light Snow,340,2013-03-07 04:54:00